Time;durP1;ratioP1;P1;durP2;ratioP2;P2;SDS_P1;SDS_P2;PMS_P1;PMS_P2;Temp;Humidity;BMP_temperature;BMP_pressure;BME280_temperature;BME280_humidity;BME280_pressure;Samples;Min_cycle;Max_cycle;Signal;HPM_P1;HPM_P2
2021/04/07 00:00:38;;;;;;;12.45;2.45;;;1.30;93.00;;;;;;5115081;28;20468;-66
2021/04/07 00:03:06;;;;;;;16.63;2.22;;;1.30;92.80;;;;;;5114995;28;20380;-66
2021/04/07 00:05:35;;;;;;;10.23;2.53;;;1.30;92.70;;;;;;5114923;27;20043;-66
2021/04/07 00:08:02;;;;;;;11.27;3.28;;;1.30;92.70;;;;;;5114944;28;20040;-66
2021/04/07 00:10:33;;;;;;;7.53;1.70;;;1.30;92.80;;;;;;5113773;28;20040;-66
2021/04/07 00:12:59;;;;;;;9.65;1.98;;;1.30;92.80;;;;;;5114712;28;20043;-66
2021/04/07 00:15:26;;;;;;;11.63;2.42;;;1.30;92.80;;;;;;5114840;28;20043;-66
2021/04/07 00:17:52;;;;;;;9.48;2.30;;;1.20;92.80;;;;;;5114789;28;20041;-66
2021/04/07 00:20:21;;;;;;;7.22;1.85;;;1.30;92.80;;;;;;5115924;28;20558;-66
2021/04/07 00:22:47;;;;;;;13.07;1.95;;;1.30;92.80;;;;;;5126592;28;20061;-66
2021/04/07 00:25:14;;;;;;;11.68;2.20;;;1.30;92.90;;;;;;5119690;28;20067;-66
2021/04/07 00:27:42;;;;;;;9.88;2.15;;;1.30;92.80;;;;;;5114746;28;20176;-66
2021/04/07 00:30:09;;;;;;;5.32;1.58;;;1.30;92.70;;;;;;5114624;28;20035;-66
2021/04/07 00:32:35;;;;;;;10.88;2.25;;;1.20;92.70;;;;;;5120751;28;20050;-66
2021/04/07 00:35:01;;;;;;;8.10;2.08;;;1.30;92.60;;;;;;5125139;28;20059;-66
2021/04/07 00:37:27;;;;;;;11.38;1.90;;;1.20;92.70;;;;;;5124533;28;20514;-66
2021/04/07 00:39:53;;;;;;;8.68;1.80;;;1.20;92.80;;;;;;5129059;28;20043;-66
2021/04/07 00:42:19;;;;;;;12.00;2.00;;;1.10;93.00;;;;;;5114259;28;20479;-66
2021/04/07 00:44:45;;;;;;;11.52;2.88;;;1.10;93.00;;;;;;5113972;28;20046;-66
2021/04/07 00:47:16;;;;;;;7.85;1.92;;;1.10;93.10;;;;;;5116596;28;20429;-66
2021/04/07 00:49:42;;;;;;;9.70;1.52;;;1.10;93.30;;;;;;5115630;28;20392;-66
2021/04/07 00:52:08;;;;;;;10.45;1.48;;;1.10;93.10;;;;;;5114409;28;20118;-66
2021/04/07 00:54:34;;;;;;;5.97;1.92;;;1.10;93.10;;;;;;5113855;28;20035;-66
2021/04/07 00:57:00;;;;;;;7.13;1.70;;;1.00;93.00;;;;;;5114196;28;20035;-66
2021/04/07 00:59:26;;;;;;;8.50;2.50;;;1.00;93.20;;;;;;5114198;28;20036;-66
2021/04/07 01:01:52;;;;;;;6.25;1.50;;;1.00;93.20;;;;;;5112533;28;20040;-66
2021/04/07 01:04:19;;;;;;;9.55;1.65;;;1.00;93.20;;;;;;5112670;28;20039;-66
2021/04/07 01:06:46;;;;;;;10.85;1.50;;;0.90;93.30;;;;;;5113340;28;20048;-66
2021/04/07 01:09:12;;;;;;;7.75;1.92;;;1.00;93.40;;;;;;5113898;28;20040;-66
2021/04/07 01:11:37;;;;;;;6.68;2.05;;;1.00;93.60;;;;;;5113717;28;20476;-66
2021/04/07 01:14:04;;;;;;;11.75;1.90;;;1.00;93.20;;;;;;5113481;28;20087;-66
2021/04/07 01:16:31;;;;;;;11.63;2.50;;;1.10;93.30;;;;;;5133479;28;20077;-66
2021/04/07 01:18:56;;;;;;;6.18;1.50;;;1.10;93.30;;;;;;5114303;28;20058;-66
2021/04/07 01:21:23;;;;;;;6.68;1.48;;;1.10;93.40;;;;;;5113695;28;20044;-66
2021/04/07 01:23:49;;;;;;;5.63;1.65;;;1.10;93.60;;;;;;5113697;28;20062;-66
2021/04/07 01:26:16;;;;;;;8.82;1.92;;;1.10;93.60;;;;;;5113391;28;20090;-66
2021/04/07 01:28:42;;;;;;;8.63;1.60;;;1.10;93.70;;;;;;5113540;28;20046;-66
2021/04/07 01:31:08;;;;;;;8.98;1.98;;;1.10;93.70;;;;;;5113476;28;20093;-66
2021/04/07 01:33:35;;;;;;;7.70;1.95;;;1.20;93.60;;;;;;5114500;28;20031;-66
2021/04/07 01:36:01;;;;;;;16.05;3.92;;;1.20;93.70;;;;;;5114163;28;20040;-66
2021/04/07 01:38:27;;;;;;;7.40;1.77;;;1.20;93.70;;;;;;5113711;28;20480;-66
2021/04/07 01:40:54;;;;;;;11.35;2.10;;;1.20;93.70;;;;;;5113475;28;20036;-66
2021/04/07 01:43:23;;;;;;;7.00;1.92;;;1.30;93.60;;;;;;5113780;28;20031;-66
2021/04/07 01:45:50;;;;;;;5.50;1.50;;;1.20;93.60;;;;;;5113192;28;20089;-66
2021/04/07 01:48:17;;;;;;;7.72;2.50;;;1.20;93.60;;;;;;5113164;27;20047;-66
2021/04/07 01:50:45;;;;;;;9.73;1.88;;;1.30;93.50;;;;;;5113523;28;20482;-66
2021/04/07 01:53:12;;;;;;;9.38;2.28;;;1.20;93.60;;;;;;5113555;28;20036;-66
2021/04/07 01:55:38;;;;;;;7.10;2.05;;;1.20;93.60;;;;;;5112984;28;20100;-66
2021/04/07 01:58:04;;;;;;;8.93;1.92;;;1.20;93.70;;;;;;5113099;28;20445;-66
2021/04/07 02:00:30;;;;;;;5.88;1.33;;;1.20;93.90;;;;;;5113390;28;20455;-66
2021/04/07 02:02:56;;;;;;;8.82;1.77;;;1.20;94.00;;;;;;5112131;28;20051;-66
2021/04/07 02:05:22;;;;;;;10.10;1.67;;;1.20;94.10;;;;;;5113294;28;20448;-66
2021/04/07 02:07:47;;;;;;;6.05;1.58;;;1.20;94.20;;;;;;5111614;28;20059;-66
2021/04/07 02:10:14;;;;;;;4.53;1.40;;;1.20;94.50;;;;;;5113594;28;20067;-66
2021/04/07 02:12:40;;;;;;;4.43;1.80;;;1.30;94.70;;;;;;5113055;28;20092;-66
2021/04/07 02:15:14;;;;;;;6.75;1.45;;;1.40;94.70;;;;;;5114656;28;20039;-66
2021/04/07 02:17:40;;;;;;;5.50;1.73;;;1.40;94.80;;;;;;5116686;28;20036;-66
2021/04/07 02:20:08;;;;;;;12.13;1.90;;;1.40;94.80;;;;;;5116866;28;20058;-66
2021/04/07 02:22:33;;;;;;;10.93;1.77;;;1.40;94.80;;;;;;5116630;28;20085;-66
2021/04/07 02:25:00;;;;;;;8.95;1.50;;;1.40;94.80;;;;;;5116228;28;20397;-66
2021/04/07 02:27:26;;;;;;;9.38;1.98;;;1.40;95.00;;;;;;5116386;28;20040;-66
2021/04/07 02:29:55;;;;;;;10.20;2.15;;;1.50;94.80;;;;;;5116508;28;20031;-66
2021/04/07 02:32:22;;;;;;;5.88;1.95;;;1.50;94.90;;;;;;5116477;28;20070;-66
2021/04/07 02:34:48;;;;;;;5.95;1.60;;;1.40;95.00;;;;;;5116252;27;20038;-66
2021/04/07 02:37:16;;;;;;;8.55;1.13;;;1.40;95.10;;;;;;5116350;28;20031;-66
2021/04/07 02:39:42;;;;;;;7.80;1.48;;;1.40;95.00;;;;;;5116716;28;20047;-66
2021/04/07 02:42:09;;;;;;;6.93;1.33;;;1.40;95.20;;;;;;5116244;28;20049;-66
2021/04/07 02:44:36;;;;;;;9.80;1.73;;;1.30;95.20;;;;;;5115957;28;20153;-66
2021/04/07 02:47:03;;;;;;;5.97;1.27;;;1.30;95.40;;;;;;5116321;28;20035;-66
2021/04/07 02:49:28;;;;;;;9.35;1.50;;;1.20;95.50;;;;;;5116376;27;20377;-66
2021/04/07 02:51:55;;;;;;;4.60;1.42;;;1.20;95.60;;;;;;5116145;28;20080;-66
2021/04/07 02:54:21;;;;;;;9.15;1.70;;;1.30;95.50;;;;;;5115972;28;20044;-66
2021/04/07 02:56:48;;;;;;;8.27;1.60;;;1.20;95.70;;;;;;5116091;28;20043;-66
2021/04/07 02:59:13;;;;;;;8.25;1.55;;;1.20;95.80;;;;;;5116105;28;20046;-65
2021/04/07 03:01:39;;;;;;;6.05;1.02;;;1.20;95.80;;;;;;5116236;28;20028;-65
2021/04/07 03:04:05;;;;;;;5.32;1.23;;;1.20;95.80;;;;;;5115923;28;20039;-66
2021/04/07 03:06:31;;;;;;;4.57;1.70;;;1.20;95.80;;;;;;5115358;28;20058;-65
2021/04/07 03:08:58;;;;;;;9.07;2.05;;;1.30;95.90;;;;;;5115602;28;20062;-66
2021/04/07 03:11:25;;;;;;;8.65;2.63;;;1.30;96.00;;;;;;5115764;28;20035;-66
2021/04/07 03:13:51;;;;;;;9.70;1.60;;;1.30;96.10;;;;;;5115733;28;20550;-66
2021/04/07 03:16:16;;;;;;;9.00;2.10;;;1.30;96.00;;;;;;5115431;28;20081;-66
2021/04/07 03:18:42;;;;;;;7.45;1.77;;;1.30;95.80;;;;;;5115671;27;20047;-66
2021/04/07 03:21:08;;;;;;;5.82;1.15;;;1.30;96.00;;;;;;5114329;28;20426;-66
2021/04/07 03:23:33;;;;;;;5.40;1.25;;;1.30;96.10;;;;;;5115415;28;20075;-66
2021/04/07 03:25:59;;;;;;;3.88;1.27;;;1.30;96.20;;;;;;5114995;28;20039;-66
2021/04/07 03:28:26;;;;;;;3.67;1.30;;;1.30;96.20;;;;;;5115579;28;20127;-66
2021/04/07 03:30:51;;;;;;;3.08;1.55;;;1.30;96.30;;;;;;5115355;28;20031;-66
2021/04/07 03:33:28;;;;;;;6.15;1.30;;;1.30;96.20;;;;;;5115715;28;20038;-66
2021/04/07 03:35:56;;;;;;;4.90;1.30;;;1.40;96.30;;;;;;5114831;28;20035;-66
2021/04/07 03:38:22;;;;;;;7.50;1.63;;;1.40;96.20;;;;;;5115674;28;20039;-66
2021/04/07 03:40:48;;;;;;;4.55;1.33;;;1.40;96.30;;;;;;5115368;28;20066;-66
2021/04/07 03:43:19;;;;;;;5.85;1.80;;;1.40;96.20;;;;;;5115218;28;20047;-65
2021/04/07 03:45:49;;;;;;;7.20;1.90;;;1.40;96.10;;;;;;5114756;28;20063;-66
2021/04/07 03:48:17;;;;;;;7.00;1.80;;;1.50;96.10;;;;;;5114972;28;20437;-66
2021/04/07 03:50:43;;;;;;;6.45;1.48;;;1.40;96.10;;;;;;5114834;28;20403;-66
2021/04/07 03:53:10;;;;;;;5.18;1.70;;;1.40;96.20;;;;;;5115027;28;20040;-66
2021/04/07 03:55:37;;;;;;;4.05;1.33;;;1.50;96.30;;;;;;5114670;28;20031;-66
2021/04/07 03:58:03;;;;;;;6.85;1.27;;;1.40;96.10;;;;;;5114792;28;20044;-66
2021/04/07 04:00:30;;;;;;;10.95;1.40;;;1.40;96.20;;;;;;5114901;28;20039;-65
2021/04/07 04:02:56;;;;;;;6.18;1.73;;;1.50;96.30;;;;;;5114667;28;20383;-66
2021/04/07 04:05:22;;;;;;;8.65;1.60;;;1.50;96.20;;;;;;5114728;28;20047;-65
2021/04/07 04:07:47;;;;;;;4.50;1.08;;;1.50;96.30;;;;;;5114432;28;20054;-66
2021/04/07 04:10:14;;;;;;;7.57;1.67;;;1.50;96.40;;;;;;5114702;28;20046;-65
2021/04/07 04:12:40;;;;;;;6.60;1.40;;;1.40;96.30;;;;;;5114700;28;20122;-65
2021/04/07 04:15:10;;;;;;;6.15;1.40;;;1.50;96.50;;;;;;5114425;28;20520;-66
2021/04/07 04:17:40;;;;;;;7.07;1.58;;;1.40;96.50;;;;;;5114425;28;20556;-66
2021/04/07 04:20:07;;;;;;;2.40;0.90;;;1.40;96.50;;;;;;5114272;28;20034;-65
2021/04/07 04:22:33;;;;;;;4.55;1.10;;;1.40;96.50;;;;;;5114497;28;20040;-66
2021/04/07 04:24:59;;;;;;;3.58;1.08;;;1.40;96.60;;;;;;5114310;28;20035;-66
2021/04/07 04:27:25;;;;;;;4.65;1.00;;;1.50;96.60;;;;;;5114633;28;20209;-66
2021/04/07 04:29:51;;;;;;;4.53;1.30;;;1.40;96.60;;;;;;5114779;28;20049;-66
2021/04/07 04:32:17;;;;;;;2.53;1.05;;;1.50;96.60;;;;;;5114664;28;20415;-65
2021/04/07 04:34:43;;;;;;;2.58;1.30;;;1.50;96.50;;;;;;5114338;28;20044;-65
2021/04/07 04:37:08;;;;;;;3.60;1.10;;;1.50;96.50;;;;;;5113682;28;20089;-65
2021/04/07 04:39:34;;;;;;;7.53;2.60;;;1.50;96.60;;;;;;5114071;28;20036;-65
2021/04/07 04:42:00;;;;;;;7.88;1.45;;;1.50;96.60;;;;;;5114022;28;20126;-66
2021/04/07 04:44:26;;;;;;;3.00;1.10;;;1.50;96.60;;;;;;5113710;28;20063;-66
2021/04/07 04:46:52;;;;;;;3.92;1.40;;;1.50;96.60;;;;;;5114050;28;20032;-66
2021/04/07 04:49:18;;;;;;;2.72;0.77;;;1.50;96.60;;;;;;5112700;28;20067;-65
2021/04/07 04:51:44;;;;;;;5.93;1.30;;;1.50;96.60;;;;;;5113864;28;20036;-65
2021/04/07 04:54:09;;;;;;;5.82;2.00;;;1.50;96.70;;;;;;5114184;28;20444;-66
2021/04/07 04:56:38;;;;;;;4.80;1.45;;;1.50;96.60;;;;;;5113383;28;20035;-66
2021/04/07 04:59:04;;;;;;;5.50;1.52;;;1.50;96.70;;;;;;5113797;28;20055;-65
2021/04/07 05:01:41;;;;;;;3.58;1.48;;;1.60;96.70;;;;;;5113805;28;20064;-65
2021/04/07 05:04:06;;;;;;;4.65;1.33;;;1.60;96.60;;;;;;5113710;28;20127;-65
2021/04/07 05:06:33;;;;;;;2.95;1.80;;;1.60;96.60;;;;;;5113246;28;20036;-66
2021/04/07 05:09:00;;;;;;;3.42;1.75;;;1.60;96.50;;;;;;5113515;28;20169;-66
2021/04/07 05:11:26;;;;;;;3.08;1.65;;;1.70;96.60;;;;;;5113990;28;20043;-65
2021/04/07 05:13:52;;;;;;;6.07;1.42;;;1.60;96.50;;;;;;5113575;28;20369;-65
2021/04/07 05:16:18;;;;;;;6.40;2.15;;;1.70;96.50;;;;;;5113258;28;20414;-65
2021/04/07 05:18:43;;;;;;;4.18;1.63;;;1.70;96.60;;;;;;5113514;28;20468;-65
2021/04/07 05:21:09;;;;;;;4.45;1.60;;;1.70;96.70;;;;;;5113653;28;20542;-65
2021/04/07 05:23:35;;;;;;;5.22;2.00;;;1.70;96.60;;;;;;5113678;28;20406;-65
2021/04/07 05:26:01;;;;;;;4.72;1.48;;;1.70;96.60;;;;;;5112319;28;20048;-65
2021/04/07 05:28:27;;;;;;;7.70;1.70;;;1.70;96.50;;;;;;5113554;28;20402;-65
2021/04/07 05:31:02;;;;;;;4.40;1.50;;;1.70;96.60;;;;;;5113426;28;20048;-65
2021/04/07 05:33:36;;;;;;;4.22;1.60;;;1.80;96.60;;;;;;5112220;28;20036;-65
2021/04/07 05:36:06;;;;;;;;;;;1.80;96.60;;;;;;5113607;28;20036;-65
2021/04/07 05:38:32;;;;;;;4.85;1.55;;;1.70;96.70;;;;;;5113395;28;20019;-65
2021/04/07 05:40:59;;;;;;;5.82;1.55;;;1.80;96.70;;;;;;5113499;28;20490;-65
2021/04/07 05:43:26;;;;;;;4.18;2.00;;;1.80;96.40;;;;;;5113865;28;20479;-65
2021/04/07 05:45:51;;;;;;;2.67;1.70;;;1.80;96.50;;;;;;5094965;28;20050;-65
2021/04/07 05:48:17;;;;;;;5.25;1.88;;;1.90;96.60;;;;;;5113198;28;20035;-65
2021/04/07 05:50:49;;;;;;;5.22;2.20;;;1.90;96.60;;;;;;5116801;28;20044;-67
2021/04/07 05:53:15;;;;;;;8.43;2.28;;;2.00;96.60;;;;;;5117754;28;20036;-66
2021/04/07 05:55:59;;;;;;;3.50;1.73;;;2.10;96.50;;;;;;5116941;28;20035;-65
2021/04/07 05:58:26;;;;;;;5.20;1.70;;;2.10;96.70;;;;;;5117423;28;20551;-65
2021/04/07 06:00:52;;;;;;;5.22;1.88;;;2.20;96.50;;;;;;5117291;28;20091;-66
2021/04/07 06:03:19;;;;;;;6.72;2.25;;;2.30;96.50;;;;;;5117067;28;20059;-65
2021/04/07 06:05:48;;;;;;;5.43;1.98;;;2.30;96.30;;;;;;5116671;28;20114;-66
2021/04/07 06:08:14;;;;;;;5.68;2.13;;;2.30;96.10;;;;;;5116995;28;20040;-65
2021/04/07 06:10:42;;;;;;;14.75;2.25;;;2.40;96.10;;;;;;5116869;28;20051;-65
2021/04/07 06:13:11;;;;;;;5.78;1.92;;;2.50;96.20;;;;;;5116937;28;20090;-65
2021/04/07 06:15:39;;;;;;;5.97;2.67;;;2.70;96.10;;;;;;5116409;28;20031;-65
2021/04/07 06:18:06;;;;;;;5.88;2.35;;;2.90;95.90;;;;;;5116681;28;20044;-65
2021/04/07 06:20:39;;;;;;;8.00;2.40;;;3.20;95.70;;;;;;5116529;28;20039;-65
2021/04/07 06:23:09;;;;;;;5.85;2.88;;;3.40;95.20;;;;;;5116606;28;20160;-65
2021/04/07 06:25:36;;;;;;;4.85;2.53;;;3.40;94.90;;;;;;5116337;28;20039;-65
2021/04/07 06:28:05;;;;;;;7.95;2.50;;;3.30;94.90;;;;;;5116180;28;20038;-65
2021/04/07 06:30:42;;;;;;;6.55;3.03;;;3.20;94.80;;;;;;5116423;28;20039;-65
2021/04/07 06:33:09;;;;;;;9.85;3.35;;;3.20;95.00;;;;;;5116879;28;20474;-65
2021/04/07 06:35:36;;;;;;;8.85;2.42;;;3.10;95.20;;;;;;5114661;28;20063;-65
2021/04/07 06:38:02;;;;;;;6.88;2.97;;;3.10;95.30;;;;;;5116510;28;20422;-65
2021/04/07 06:40:29;;;;;;;5.50;2.47;;;3.20;95.40;;;;;;5116534;28;20043;-65
2021/04/07 06:42:56;;;;;;;7.75;3.28;;;3.20;95.20;;;;;;5116308;27;20519;-65
2021/04/07 06:45:22;;;;;;;11.38;3.22;;;3.10;95.30;;;;;;5115853;28;20040;-65
2021/04/07 06:47:50;;;;;;;4.97;2.80;;;3.10;95.40;;;;;;5115793;28;20093;-65
2021/04/07 06:50:16;;;;;;;9.55;3.00;;;3.10;95.30;;;;;;5116126;28;20071;-65
2021/04/07 06:52:43;;;;;;;15.25;3.35;;;3.30;95.50;;;;;;5116119;28;20442;-65
2021/04/07 06:55:10;;;;;;;4.55;2.60;;;3.70;95.40;;;;;;5115673;28;20036;-65
2021/04/07 06:57:36;;;;;;;10.07;3.28;;;4.00;94.70;;;;;;5116164;28;20533;-65
2021/04/07 07:00:08;;;;;;;5.82;2.88;;;4.30;94.30;;;;;;5115653;28;20118;-65
2021/04/07 07:02:36;;;;;;;9.93;2.92;;;4.70;93.80;;;;;;5115932;28;20088;-65
2021/04/07 07:05:03;;;;;;;6.88;2.38;;;4.90;93.50;;;;;;5115681;28;20088;-65
2021/04/07 07:07:29;;;;;;;10.40;3.28;;;5.10;93.10;;;;;;5115580;28;20044;-65
2021/04/07 07:09:56;;;;;;;9.15;2.35;;;5.30;92.70;;;;;;5115764;28;20387;-65
2021/04/07 07:12:22;;;;;;;9.60;3.05;;;5.50;92.70;;;;;;5115831;28;20110;-65
2021/04/07 07:14:49;;;;;;;8.05;2.40;;;5.80;92.30;;;;;;5115842;28;20513;-65
2021/04/07 07:17:31;;;;;;;7.13;1.95;;;5.90;92.10;;;;;;5115889;28;20047;-66
2021/04/07 07:19:57;;;;;;;11.75;2.70;;;5.70;92.20;;;;;;5115858;28;20035;-65
2021/04/07 07:22:25;;;;;;;8.57;2.20;;;5.50;92.00;;;;;;5115674;28;20546;-65
2021/04/07 07:24:59;;;;;;;9.75;3.85;;;5.30;92.40;;;;;;5115636;28;20064;-65
2021/04/07 07:27:36;;;;;;;9.00;2.33;;;5.30;93.00;;;;;;5114172;28;20075;-65
2021/04/07 07:30:05;;;;;;;12.73;3.38;;;5.20;92.90;;;;;;5114388;28;20031;-65
2021/04/07 07:32:32;;;;;;;12.43;2.95;;;5.10;92.90;;;;;;5115307;28;20047;-65
2021/04/07 07:35:28;;;;;;;12.40;2.75;;;5.40;93.00;;;;;;5114967;28;20035;-65
2021/04/07 07:38:00;;;;;;;13.45;2.75;;;5.60;93.00;;;;;;5106282;28;20058;-65
2021/04/07 07:40:26;;;;;;;11.55;3.70;;;5.60;92.90;;;;;;5115619;28;20075;-65
2021/04/07 07:42:52;;;;;;;11.45;2.45;;;5.70;92.70;;;;;;5115184;28;20435;-65
2021/04/07 07:45:47;;;;;;;12.50;3.00;;;5.80;92.70;;;;;;5114777;28;20040;-66
2021/04/07 07:48:17;;;;;;;8.93;3.47;;;5.90;92.40;;;;;;5105983;28;20075;-65
2021/04/07 07:50:46;;;;;;;13.63;3.00;;;6.10;92.40;;;;;;5115144;28;20043;-66
2021/04/07 07:53:17;;;;;;;10.88;2.70;;;6.30;92.50;;;;;;5115045;28;20043;-66
2021/04/07 07:55:45;;;;;;;16.73;3.75;;;6.40;92.20;;;;;;5114597;28;20090;-66
2021/04/07 07:58:11;;;;;;;9.10;2.35;;;6.30;92.40;;;;;;5114817;28;20388;-66
2021/04/07 08:00:37;;;;;;;9.48;2.17;;;6.00;92.20;;;;;;5113727;28;20028;-66
2021/04/07 08:03:15;;;;;;;14.00;2.70;;;5.80;92.60;;;;;;5114712;28;20372;-67
2021/04/07 08:05:43;;;;;;;17.95;3.08;;;5.70;92.90;;;;;;5114602;28;20046;-66
2021/04/07 08:08:10;;;;;;;10.07;2.25;;;5.60;93.30;;;;;;5114583;28;20032;-66
2021/04/07 08:10:37;;;;;;;14.60;2.63;;;5.60;93.50;;;;;;5114864;27;20044;-66
2021/04/07 08:13:05;;;;;;;12.20;2.95;;;5.60;93.30;;;;;;5114305;28;20047;-66
2021/04/07 08:15:32;;;;;;;13.38;2.50;;;5.40;93.30;;;;;;5113452;28;20114;-66
2021/04/07 08:17:59;;;;;;;13.57;2.30;;;5.40;93.40;;;;;;5114745;28;20050;-66
2021/04/07 08:20:26;;;;;;;10.45;2.63;;;5.30;93.60;;;;;;5114548;28;20433;-66
2021/04/07 08:22:53;;;;;;;12.68;2.70;;;5.30;93.90;;;;;;5113370;28;20395;-66
2021/04/07 08:25:21;;;;;;;12.10;3.08;;;5.20;93.90;;;;;;5114390;28;20051;-66
2021/04/07 08:27:50;;;;;;;16.05;3.17;;;5.30;94.20;;;;;;5112975;28;20038;-66
2021/04/07 08:30:17;;;;;;;15.52;2.83;;;5.40;94.50;;;;;;5114468;28;20122;-66
2021/04/07 08:32:45;;;;;;;20.73;4.45;;;5.50;94.40;;;;;;5114429;28;20405;-66
2021/04/07 08:35:12;;;;;;;17.25;2.25;;;5.70;94.40;;;;;;5114179;28;20043;-66
2021/04/07 08:37:38;;;;;;;14.32;2.28;;;5.60;93.90;;;;;;5114328;28;20052;-66
2021/04/07 08:40:17;;;;;;;14.57;3.00;;;5.60;94.00;;;;;;5114367;28;20479;-66
2021/04/07 08:42:44;;;;;;;19.10;3.00;;;5.60;94.00;;;;;;5114303;28;20051;-66
2021/04/07 08:45:12;;;;;;;17.90;3.75;;;5.70;94.20;;;;;;5114353;28;20096;-66
2021/04/07 08:47:45;;;;;;;17.83;3.35;;;5.80;94.00;;;;;;5113821;28;20088;-66
2021/04/07 08:50:13;;;;;;;24.70;4.40;;;5.80;93.70;;;;;;5114017;28;20041;-66
2021/04/07 08:52:43;;;;;;;17.45;4.07;;;5.70;93.20;;;;;;5113943;28;20039;-66
2021/04/07 08:55:28;;;;;;;27.27;5.30;;;5.80;93.60;;;;;;5113665;28;20039;-66
2021/04/07 08:58:05;;;;;;;30.75;4.38;;;5.80;93.20;;;;;;5114039;28;20451;-66
2021/04/07 09:00:36;;;;;;;26.67;3.63;;;5.80;93.50;;;;;;5114060;28;20070;-66
2021/04/07 09:03:12;;;;;;;21.85;4.43;;;5.80;93.50;;;;;;5113855;28;20046;-66
2021/04/07 09:05:44;;;;;;;30.80;4.88;;;5.90;92.90;;;;;;5125675;27;20483;-66
2021/04/07 09:08:34;;;;;;;25.27;4.47;;;6.10;92.90;;;;;;5132267;27;20126;-66
2021/04/07 09:11:00;;;;;;;26.58;4.95;;;6.20;92.90;;;;;;5133925;27;20455;-66
2021/04/07 09:13:26;;;;;;;17.20;3.85;;;6.30;93.10;;;;;;5134229;27;20035;-66
2021/04/07 09:16:01;;;;;;;19.73;3.75;;;6.30;91.90;;;;;;5133753;27;20039;-66
2021/04/07 09:18:36;;;;;;;21.30;5.45;;;6.40;91.80;;;;;;5134538;27;20042;-66
2021/04/07 09:21:04;;;;;;;15.68;3.58;;;6.60;91.40;;;;;;5134707;27;20069;-66
2021/04/07 09:23:33;;;;;;;15.70;3.38;;;6.70;91.30;;;;;;5135722;27;20379;-66
2021/04/07 09:26:22;;;;;;;18.88;3.50;;;6.70;90.90;;;;;;5137889;27;20053;-66
2021/04/07 09:28:52;;;;;;;19.90;4.57;;;6.80;90.90;;;;;;5138089;27;20039;-66
2021/04/07 09:31:32;;;;;;;16.15;4.13;;;6.80;90.70;;;;;;5138525;27;20039;-66
2021/04/07 09:33:58;;;;;;;21.25;3.75;;;6.80;90.20;;;;;;5138332;27;20039;-69
2021/04/07 09:36:34;;;;;;;14.80;3.47;;;6.80;90.80;;;;;;5136357;27;20058;-69
2021/04/07 09:39:04;;;;;;;19.60;3.55;;;6.80;90.00;;;;;;5138451;27;20044;-69
2021/04/07 09:41:33;;;;;;;16.00;3.63;;;6.80;89.60;;;;;;5138245;27;20038;-69
2021/04/07 09:44:00;;;;;;;21.55;4.15;;;6.80;90.00;;;;;;5138385;27;20058;-69
2021/04/07 09:46:27;;;;;;;17.45;4.00;;;6.80;90.10;;;;;;5137716;27;20039;-69
2021/04/07 09:48:55;;;;;;;18.02;5.45;;;6.90;90.00;;;;;;5137960;27;20039;-70
2021/04/07 09:51:39;;;;;;;23.10;4.43;;;7.00;89.40;;;;;;5138235;27;20047;-70
2021/04/07 09:54:08;;;;;;;22.83;4.57;;;7.20;89.40;;;;;;5137772;27;20043;-69
2021/04/07 09:56:48;;;;;;;23.73;4.68;;;7.30;87.70;;;;;;5137326;27;20406;-69
2021/04/07 09:59:14;;;;;;;16.77;3.97;;;7.30;84.40;;;;;;5136714;27;20049;-70
2021/04/07 10:01:40;;;;;;;21.50;5.78;;;7.20;84.10;;;;;;5137570;27;20035;-69
2021/04/07 10:04:06;;;;;;;14.95;3.53;;;7.10;83.60;;;;;;5137690;27;20459;-69
2021/04/07 10:06:33;;;;;;;25.20;4.95;;;7.20;85.60;;;;;;5137111;27;20039;-69
2021/04/07 10:09:04;;;;;;;21.52;5.20;;;7.20;84.40;;;;;;5138116;27;20035;-69
2021/04/07 10:11:31;;;;;;;13.77;4.25;;;7.20;82.50;;;;;;5136515;27;20046;-69
2021/04/07 10:13:59;;;;;;;19.95;4.30;;;7.10;82.50;;;;;;5136800;27;20043;-69
2021/04/07 10:16:40;;;;;;;17.15;3.97;;;7.00;80.40;;;;;;5137109;27;20035;-70
2021/04/07 10:19:08;;;;;;;21.02;4.63;;;7.00;82.50;;;;;;5137372;27;20050;-69
2021/04/07 10:21:34;;;;;;;16.75;3.90;;;7.00;82.60;;;;;;5137771;27;20459;-69
2021/04/07 10:24:02;;;;;;;15.00;4.20;;;7.20;82.30;;;;;;5137468;27;20039;-69
2021/04/07 10:26:28;;;;;;;16.23;3.58;;;7.30;80.70;;;;;;5136841;27;20108;-70
2021/04/07 10:29:01;;;;;;;17.38;3.20;;;7.40;79.90;;;;;;5137376;27;20088;-71
2021/04/07 10:31:28;;;;;;;;;;;7.40;78.40;;;;;;5137573;27;20062;-72
2021/04/07 10:34:05;;;;;;;13.98;2.40;;;7.50;78.70;;;;;;5137375;27;19915;-72
2021/04/07 10:36:32;;;;;;;17.70;3.25;;;7.60;77.90;;;;;;5135881;27;20041;-71
2021/04/07 10:39:18;;;;;;;16.10;3.15;;;7.60;80.10;;;;;;5135848;27;20050;-72
2021/04/07 10:41:48;;;;;;;14.73;2.53;;;7.50;79.90;;;;;;5136810;27;20042;-73
2021/04/07 10:44:27;;;;;;;16.77;3.35;;;7.50;78.60;;;;;;5137069;27;20442;-73
2021/04/07 10:46:54;;;;;;;20.83;3.53;;;7.60;78.50;;;;;;5136740;27;20038;-73
2021/04/07 10:49:21;;;;;;;16.63;3.15;;;7.90;78.50;;;;;;5136766;27;20061;-73
2021/04/07 10:52:02;;;;;;;13.63;3.50;;;7.90;75.90;;;;;;5136809;27;20066;-72
2021/04/07 10:54:29;;;;;;;12.15;2.15;;;7.40;78.70;;;;;;5135139;27;20039;-73
2021/04/07 10:57:09;;;;;;;8.48;1.80;;;6.90;83.40;;;;;;5136532;27;20391;-72
2021/04/07 10:59:35;;;;;;;15.95;2.95;;;6.60;85.50;;;;;;5137355;27;20038;-72
2021/04/07 11:02:15;;;;;;;14.02;2.72;;;6.50;88.10;;;;;;5136598;27;20041;-72
2021/04/07 11:04:40;;;;;;;14.30;3.65;;;6.40;88.50;;;;;;5136176;27;20046;-72
2021/04/07 11:07:11;;;;;;;11.25;3.70;;;6.40;89.10;;;;;;5135561;27;20118;-73
2021/04/07 11:09:45;;;;;;;10.30;2.20;;;6.20;88.00;;;;;;5136597;27;20035;-73
2021/04/07 11:12:11;;;;;;;10.50;1.83;;;6.20;86.90;;;;;;5136805;27;20037;-73
2021/04/07 11:14:39;;;;;;;12.68;2.22;;;6.40;87.80;;;;;;5134802;27;20057;-73
2021/04/07 11:17:05;;;;;;;10.15;2.20;;;6.50;87.50;;;;;;5136467;27;20043;-73
2021/04/07 11:19:38;;;;;;;8.45;1.83;;;6.60;86.70;;;;;;5136236;27;20364;-72
2021/04/07 11:22:04;;;;;;;17.73;3.10;;;6.60;84.40;;;;;;5136180;27;20406;-72
2021/04/07 11:24:30;;;;;;;14.43;2.40;;;6.70;85.30;;;;;;5135860;27;20057;-73
2021/04/07 11:27:00;;;;;;;12.40;2.30;;;6.90;85.50;;;;;;5135847;27;20035;-73
2021/04/07 11:29:26;;;;;;;17.38;2.60;;;7.00;83.10;;;;;;5133670;27;20038;-72
2021/04/07 11:31:56;;;;;;;20.10;3.78;;;7.00;82.40;;;;;;5134899;27;20035;-72
2021/04/07 11:34:34;;;;;;;15.60;3.30;;;6.90;81.90;;;;;;5136076;27;20092;-72
2021/04/07 11:39:39;;;;;;;10.13;1.77;;;6.60;82.40;;;;;;5135908;27;20506;-71
2021/04/07 11:44:33;;;;;;;6.90;1.48;;;5.60;88.10;;;;;;5135614;27;20035;-71
2021/04/07 11:47:02;;;;;;;9.13;2.13;;;5.70;89.10;;;;;;5134797;27;20543;-71
2021/04/07 11:49:28;;;;;;;7.97;1.58;;;5.70;88.70;;;;;;5135402;27;20039;-71
2021/04/07 11:51:54;;;;;;;4.38;1.42;;;5.80;89.90;;;;;;5135395;27;20046;-71
2021/04/07 11:54:20;;;;;;;8.98;1.88;;;5.90;88.00;;;;;;5135062;27;20386;-72
2021/04/07 11:56:47;;;;;;;10.80;3.10;;;6.00;88.10;;;;;;5134899;27;20126;-71
2021/04/07 11:59:21;;;;;;;12.13;2.13;;;6.20;89.30;;;;;;5135172;27;20041;-71
2021/04/07 12:01:47;;;;;;;;;;;6.30;88.00;;;;;;5136527;27;20386;-71
2021/04/07 12:04:14;;;;;;;9.52;2.13;;;6.50;88.40;;;;;;5135176;27;20460;-71
2021/04/07 12:06:40;;;;;;;11.27;2.95;;;6.60;87.10;;;;;;5134386;27;20042;-71
2021/04/07 12:09:06;;;;;;;18.35;3.13;;;6.70;85.50;;;;;;5134982;27;20047;-71
2021/04/07 12:11:33;;;;;;;15.23;3.50;;;6.80;85.20;;;;;;5135108;27;20043;-71
2021/04/07 12:14:00;;;;;;;10.55;2.83;;;6.80;83.90;;;;;;5135222;27;20090;-71
2021/04/07 12:16:25;;;;;;;11.77;3.20;;;6.90;83.70;;;;;;5134800;27;20039;-72
2021/04/07 12:18:51;;;;;;;12.05;2.22;;;7.00;81.80;;;;;;5133750;27;20046;-71
2021/04/07 12:21:18;;;;;;;5.18;1.83;;;6.90;79.80;;;;;;5134898;27;20130;-71
2021/04/07 12:23:45;;;;;;;13.02;2.13;;;7.00;78.10;;;;;;5134924;27;20031;-71
2021/04/07 12:26:14;;;;;;;18.70;2.38;;;7.10;78.80;;;;;;5134523;27;20091;-71
2021/04/07 12:28:43;;;;;;;7.35;2.55;;;7.20;78.40;;;;;;5134536;27;20123;-71
2021/04/07 12:31:12;;;;;;;12.02;2.10;;;7.20;78.00;;;;;;5135105;27;20096;-71
2021/04/07 12:33:38;;;;;;;14.90;2.00;;;7.30;76.70;;;;;;5134725;27;20084;-71
2021/04/07 12:36:12;;;;;;;11.32;2.10;;;7.30;77.00;;;;;;5133222;27;20035;-71
2021/04/07 12:38:38;;;;;;;8.77;2.03;;;7.20;76.70;;;;;;5134728;27;20490;-71
2021/04/07 12:41:11;;;;;;;10.38;2.63;;;7.20;75.50;;;;;;5134736;27;20113;-71
2021/04/07 12:43:36;;;;;;;6.68;1.63;;;7.10;74.80;;;;;;5134888;27;20062;-72
2021/04/07 12:46:02;;;;;;;9.23;2.28;;;7.00;75.20;;;;;;5134150;27;20067;-72
2021/04/07 12:48:28;;;;;;;8.57;2.25;;;7.00;76.20;;;;;;5134751;27;20451;-72
2021/04/07 12:50:54;;;;;;;11.82;2.15;;;6.90;73.70;;;;;;5134462;27;20084;-71
2021/04/07 12:53:19;;;;;;;11.10;2.17;;;6.80;73.70;;;;;;5134633;27;20114;-72
2021/04/07 12:55:45;;;;;;;8.88;2.40;;;6.60;73.70;;;;;;5134429;27;20502;-72
2021/04/07 12:58:11;;;;;;;9.13;2.13;;;6.60;79.40;;;;;;5134514;27;20388;-71
2021/04/07 13:00:36;;;;;;;14.43;2.22;;;6.40;80.80;;;;;;5134562;27;20035;-71
2021/04/07 13:03:02;;;;;;;10.73;2.42;;;6.30;82.10;;;;;;5134639;27;20424;-71